Time;durP1;ratioP1;P1;durP2;ratioP2;P2;SDS_P1;SDS_P2;PMS_P1;PMS_P2;Temp;Humidity;BMP_temperature;BMP_pressure;BME280_temperature;BME280_humidity;BME280_pressure;Samples;Min_cycle;Max_cycle;Signal;HPM_P1;HPM_P2
2024/05/06 00:00:59;;;;;;;;;;;;;;;;;;5295801;27;19938;-73
2024/05/06 00:03:28;;;;;;;;;;;;;;;;;;5293386;27;19934;-73
2024/05/06 00:05:56;;;;;;;;;;;;;;;;;;5294997;26;19931;-72
2024/05/06 00:08:25;;;;;;;;;;;;;;;;;;5293427;27;19931;-72
2024/05/06 00:10:54;;;;;;;;;;;;;;;;;;5295281;26;19946;-71
2024/05/06 00:13:23;;;;;;;;;;;;;;;;;;5294458;27;19950;-73
2024/05/06 00:15:51;;;;;;;;;;;;;;;;;;5295539;26;19937;-72
2024/05/06 00:18:20;;;;;;;;;;;;;;;;;;5294865;27;19930;-73
2024/05/06 00:20:51;;;;;;;;;;;;;;;;;;5294694;26;19931;-74
2024/05/06 00:23:20;;;;;;;;;;;;;;;;;;5297614;27;20281;-73
2024/05/06 00:25:50;;;;;;;;;;;;;;;;;;5296793;27;19958;-73
2024/05/06 00:28:19;;;;;;;;;;;;;;;;;;5296662;27;19959;-73
2024/05/06 00:30:48;;;;;;;;;;;;;;;;;;5294878;27;19938;-73
2024/05/06 00:33:17;;;;;;;;;;;;;;;;;;5296824;26;19931;-74
2024/05/06 00:35:45;;;;;;;;;;;;;;;;;;5293778;26;19950;-74
2024/05/06 00:38:14;;;;;;;;;;;;;;;;;;5294505;27;19937;-74
2024/05/06 00:40:43;;;;;;;;;;;;;;;;;;5293957;26;20337;-73
2024/05/06 00:43:12;;;;;;;;;;;;;;;;;;5296119;26;19963;-73
2024/05/06 00:45:40;;;;;;;;;;;;;;;;;;5295144;27;20035;-73
2024/05/06 00:48:09;;;;;;;;;;;;;;;;;;5302855;26;19999;-73
2024/05/06 00:50:38;;;;;;;;;;;;;;;;;;5303282;27;20012;-73
2024/05/06 00:53:07;;;;;;;;;;;;;;;;;;5298230;26;19935;-73
2024/05/06 00:55:36;;;;;;;;;;;;;;;;;;5293139;26;20398;-72
2024/05/06 00:58:05;;;;;;;;;;;;;;;;;;5294031;26;19971;-73
2024/05/06 01:00:33;;;;;;;;;;;;;;;;;;5295438;27;19938;-73
2024/05/06 01:03:02;;;;;;;;;;;;;;;;;;5294749;26;19938;-74
2024/05/06 01:05:31;;;;;;;;;;;;;;;;;;5293170;26;20446;-73
2024/05/06 01:08:00;;;;;;;;;;;;;;;;;;5288562;27;20017;-73
2024/05/06 01:10:29;;;;;;;;;;;;;;;;;;5293914;26;19942;-72
2024/05/06 01:12:58;;;;;;;;;;;;;;;;;;5293878;26;19931;-73
2024/05/06 01:15:27;;;;;;;;;;;;;;;;;;5294098;26;19935;-73
2024/05/06 01:17:55;;;;;;;;;;;;;;;;;;5290483;26;19935;-73
2024/05/06 01:20:25;;;;;;;;;;;;;;;;;;5292307;26;19930;-73
2024/05/06 01:22:54;;;;;;;;;;;;;;;;;;5296143;26;20274;-72
2024/05/06 01:25:23;;;;;;;;;;;;;;;;;;5293304;27;20008;-73
2024/05/06 01:27:57;;;;;;;;;;;;;;;;;;5294357;26;19938;-73
2024/05/06 01:30:25;;;;;;;;;;;;;;;;;;5293560;27;19943;-72
2024/05/06 01:32:54;;;;;;;;;;;;;;;;;;5293790;26;20387;-73
2024/05/06 01:35:23;;;;;;;;;;;;;;;;;;5293674;26;19938;-73
2024/05/06 01:37:51;;;;;;;;;;;;;;;;;;5290184;27;19935;-73
2024/05/06 01:40:20;;;;;;;;;;;;;;;;;;5292183;26;19938;-73
2024/05/06 01:42:49;;;;;;;;;;;;;;;;;;5292858;26;19986;-73
2024/05/06 01:45:18;;;;;;;;;;;;;;;;;;5294694;27;19931;-73
2024/05/06 01:47:46;;;;;;;;;;;;;;;;;;5295220;27;20290;-73
2024/05/06 01:50:15;;;;;;;;;;;;;;;;;;5297138;26;19938;-73
2024/05/06 01:52:44;;;;;;;;;;;;;;;;;;5296066;27;20285;-73
2024/05/06 01:55:12;;;;;;;;;;;;;;;;;;5301848;26;19942;-74
2024/05/06 01:57:41;;;;;;;;;;;;;;;;;;5294903;26;20008;-73
2024/05/06 02:00:10;;;;;;;;;;;;;;;;;;5294143;27;19931;-72
2024/05/06 02:02:39;;;;;;;;;;;;;;;;;;5296399;26;19931;-72
2024/05/06 02:05:07;;;;;;;;;;;;;;;;;;5292510;26;19930;-74
2024/05/06 02:07:36;;;;;;;;;;;;;;;;;;5296103;27;19942;-74
2024/05/06 02:10:05;;;;;;;;;;;;;;;;;;5292672;26;20260;-73
2024/05/06 02:12:33;;;;;;;;;;;;;;;;;;5296742;27;20281;-74
2024/05/06 02:15:02;;;;;;;;;;;;;;;;;;5297654;26;20284;-73
2024/05/06 02:17:31;;;;;;;;;;;;;;;;;;5295016;26;20082;-73
2024/05/06 02:20:00;;;;;;;;;;;;;;;;;;5293719;27;19931;-71
2024/05/06 02:22:28;;;;;;;;;;;;;;;;;;5297652;26;19985;-73
2024/05/06 02:24:57;;;;;;;;;;;;;;;;;;5297026;27;19939;-73
2024/05/06 02:27:26;;;;;;;;;;;;;;;;;;5297723;27;19938;-73
2024/05/06 02:29:54;;;;;;;;;;;;;;;;;;5298080;26;19943;-73
2024/05/06 02:32:23;;;;;;;;;;;;;;;;;;5296411;26;19931;-73
2024/05/06 02:34:52;;;;;;;;;;;;;;;;;;5297502;27;19942;-73
2024/05/06 02:37:21;;;;;;;;;;;;;;;;;;5297306;26;20493;-74
2024/05/06 02:39:50;;;;;;;;;;;;;;;;;;5297178;27;20411;-74
2024/05/06 02:42:18;;;;;;;;;;;;;;;;;;5296893;27;19938;-73
2024/05/06 02:44:47;;;;;;;;;;;;;;;;;;5297914;26;20387;-73
2024/05/06 02:47:16;;;;;;;;;;;;;;;;;;5300102;27;19931;-74
2024/05/06 02:49:45;;;;;;;;;;;;;;;;;;5296587;26;20492;-73
2024/05/06 02:52:13;;;;;;;;;;;;;;;;;;5296265;27;20443;-74
2024/05/06 02:54:42;;;;;;;;;;;;;;;;;;5296651;26;20286;-73
2024/05/06 02:57:11;;;;;;;;;;;;;;;;;;5303813;27;20008;-73
2024/05/06 02:59:39;;;;;;;;;;;;;;;;;;5301929;27;20386;-73
2024/05/06 03:02:08;;;;;;;;;;;;;;;;;;5297415;27;19962;-72
2024/05/06 03:04:39;;;;;;;;;;;;;;;;;;5296559;26;20525;-73
2024/05/06 03:07:08;;;;;;;;;;;;;;;;;;5294767;27;19930;-72
2024/05/06 03:09:36;;;;;;;;;;;;;;;;;;5296034;26;19946;-72
2024/05/06 03:12:05;;;;;;;;;;;;;;;;;;5294008;27;19942;-73
2024/05/06 03:14:34;;;;;;;;;;;;;;;;;;5298519;26;19937;-73
2024/05/06 03:17:02;;;;;;;;;;;;;;;;;;5297880;27;19942;-73
2024/05/06 03:19:31;;;;;;;;;;;;;;;;;;5302990;27;19931;-73
2024/05/06 03:22:00;;;;;;;;;;;;;;;;;;5297558;27;19931;-73
2024/05/06 03:24:28;;;;;;;;;;;;;;;;;;5293063;26;19938;-73
2024/05/06 03:26:57;;;;;;;;;;;;;;;;;;5295682;27;19938;-73
2024/05/06 03:29:26;;;;;;;;;;;;;;;;;;5295110;27;19931;-73
2024/05/06 03:31:55;;;;;;;;;;;;;;;;;;5294642;26;19938;-73
2024/05/06 03:34:23;;;;;;;;;;;;;;;;;;5296384;27;19942;-72
2024/05/06 03:36:52;;;;;;;;;;;;;;;;;;5293691;27;20677;-73
2024/05/06 03:39:21;;;;;;;;;;;;;;;;;;5292989;26;19937;-72
2024/05/06 03:41:49;;;;;;;;;;;;;;;;;;5293756;27;19930;-73
2024/05/06 03:44:18;;;;;;;;;;;;;;;;;;5294392;26;19938;-73
2024/05/06 03:46:47;;;;;;;;;;;;;;;;;;5295070;27;19931;-73
2024/05/06 03:49:16;;;;;;;;;;;;;;;;;;5295903;26;19937;-73
2024/05/06 03:51:44;;;;;;;;;;;;;;;;;;5295260;26;20490;-73
2024/05/06 03:54:13;;;;;;;;;;;;;;;;;;5293477;26;19938;-74
2024/05/06 03:56:42;;;;;;;;;;;;;;;;;;5294786;26;19931;-73
2024/05/06 03:59:11;;;;;;;;;;;;;;;;;;5300176;27;19931;-73
2024/05/06 04:01:39;;;;;;;;;;;;;;;;;;5292827;26;19931;-72
2024/05/06 04:04:08;;;;;;;;;;;;;;;;;;5298815;26;19938;-72
2024/05/06 04:06:37;;;;;;;;;;;;;;;;;;5292628;26;20144;-73
2024/05/06 04:09:05;;;;;;;;;;;;;;;;;;5293937;27;19931;-74
2024/05/06 04:11:34;;;;;;;;;;;;;;;;;;5293475;26;19937;-73
2024/05/06 04:14:03;;;;;;;;;;;;;;;;;;5293807;27;19943;-73
2024/05/06 04:16:32;;;;;;;;;;;;;;;;;;5294962;26;19941;-74
2024/05/06 04:19:01;;;;;;;;;;;;;;;;;;5297305;26;19945;-74
2024/05/06 04:21:30;;;;;;;;;;;;;;;;;;5295913;27;20440;-73
2024/05/06 04:29:28;;;;;;;;;;;;;;;;;;5297714;26;19934;-76
2024/05/06 04:31:57;;;;;;;;;;;;;;;;;;5292251;26;19930;-72
2024/05/06 04:34:25;;;;;;;;;;;;;;;;;;5295443;26;19943;-74
2024/05/06 04:36:54;;;;;;;;;;;;;;;;;;5293931;26;20275;-73
2024/05/06 04:39:23;;;;;;;;;;;;;;;;;;5292986;26;19930;-73
2024/05/06 04:41:51;;;;;;;;;;;;;;;;;;5294503;27;19942;-75
2024/05/06 04:44:20;;;;;;;;;;;;;;;;;;5292973;27;19931;-73
2024/05/06 04:46:49;;;;;;;;;;;;;;;;;;5294760;26;20454;-74
2024/05/06 04:49:18;;;;;;;;;;;;;;;;;;5294050;26;19938;-73
2024/05/06 04:51:47;;;;;;;;;;;;;;;;;;5291115;26;19939;-73
2024/05/06 04:54:15;;;;;;;;;;;;;;;;;;5294418;26;19969;-73
2024/05/06 04:56:44;;;;;;;;;;;;;;;;;;5296251;27;20260;-73
2024/05/06 04:59:13;;;;;;;;;;;;;;;;;;5290377;27;19938;-73
2024/05/06 05:01:41;;;;;;;;;;;;;;;;;;5296154;26;20684;-73
2024/05/06 05:04:10;;;;;;;;;;;;;;;;;;5296264;27;19938;-73
2024/05/06 05:06:39;;;;;;;;;;;;;;;;;;5296713;26;19938;-73
2024/05/06 05:09:08;;;;;;;;;;;;;;;;;;5295952;27;20016;-72
2024/05/06 05:11:36;;;;;;;;;;;;;;;;;;5297712;26;19930;-73
2024/05/06 05:14:05;;;;;;;;;;;;;;;;;;5303479;26;19947;-74
2024/05/06 05:16:35;;;;;;;;;;;;;;;;;;5295566;27;19930;-72
2024/05/06 05:19:04;;;;;;;;;;;;;;;;;;5302553;27;21672;-73
2024/05/06 05:21:33;;;;;;;;;;;;;;;;;;5303198;27;19946;-73
2024/05/06 05:24:02;;;;;;;;;;;;;;;;;;5304626;27;19938;-73
2024/05/06 05:26:31;;;;;;;;;;;;;;;;;;5303681;27;19937;-73
2024/05/06 05:28:59;;;;;;;;;;;;;;;;;;5303155;27;19930;-74
2024/05/06 05:31:28;;;;;;;;;;;;;;;;;;5303792;27;20350;-73
2024/05/06 05:33:57;;;;;;;;;;;;;;;;;;5305103;27;20689;-73
2024/05/06 05:36:25;;;;;;;;;;;;;;;;;;5305349;27;20274;-73
2024/05/06 05:38:54;;;;;;;;;;;;;;;;;;5306753;27;19934;-73
2024/05/06 05:41:23;;;;;;;;;;;;;;;;;;5305387;27;20339;-74
2024/05/06 05:43:51;;;;;;;;;;;;;;;;;;5306322;27;19931;-74
2024/05/06 05:46:20;;;;;;;;;;;;;;;;;;5305699;27;19942;-74
2024/05/06 05:48:49;;;;;;;;;;;;;;;;;;5305901;27;19950;-74
2024/05/06 05:51:18;;;;;;;;;;;;;;;;;;5305043;26;19938;-73
2024/05/06 05:53:46;;;;;;;;;;;;;;;;;;5304820;27;20458;-73
2024/05/06 05:56:15;;;;;;;;;;;;;;;;;;5303764;26;19937;-72
2024/05/06 05:58:44;;;;;;;;;;;;;;;;;;5305247;26;19930;-73
2024/05/06 06:01:12;;;;;;;;;;;;;;;;;;5304444;27;20392;-73
2024/05/06 06:03:41;;;;;;;;;;;;;;;;;;5304678;26;19931;-73
2024/05/06 06:06:10;;;;;;;;;;;;;;;;;;5303372;26;19937;-71
2024/05/06 06:08:38;;;;;;;;;;;;;;;;;;5304210;26;20004;-71
2024/05/06 06:11:07;;;;;;;;;;;;;;;;;;5304076;27;20015;-70
2024/05/06 06:13:36;;;;;;;;;;;;;;;;;;5304049;26;19931;-71
2024/05/06 06:16:05;;;;;;;;;;;;;;;;;;5304448;26;19931;-67
2024/05/06 06:18:33;;;;;;;;;;;;;;;;;;5304265;26;19938;-72
2024/05/06 06:21:02;;;;;;;;;;;;;;;;;;5303523;27;19935;-72
2024/05/06 06:23:31;;;;;;;;;;;;;;;;;;5283395;27;19934;-72
2024/05/06 06:25:59;;;;;;;;;;;;;;;;;;5304734;27;19931;-72
2024/05/06 06:28:28;;;;;;;;;;;;;;;;;;5303792;27;20284;-72
2024/05/06 06:30:57;;;;;;;;;;;;;;;;;;5304135;27;19942;-70
2024/05/06 06:33:25;;;;;;;;;;;;;;;;;;5304166;26;20277;-70
2024/05/06 06:35:54;;;;;;;;;;;;;;;;;;5304446;27;19931;-71
2024/05/06 06:38:23;;;;;;;;;;;;;;;;;;5303614;27;19938;-72
2024/05/06 06:40:51;;;;;;;;;;;;;;;;;;5303940;26;19931;-72
2024/05/06 06:43:21;;;;;;;;;;;;;;;;;;5303952;26;20669;-71
2024/05/06 06:45:49;;;;;;;;;;;;;;;;;;5295475;26;19955;-71
2024/05/06 06:48:18;;;;;;;;;;;;;;;;;;5303968;26;20277;-69
2024/05/06 06:50:47;;;;;;;;;;;;;;;;;;5307264;26;19931;-71
2024/05/06 06:53:15;;;;;;;;;;;;;;;;;;5302849;26;19937;-71
2024/05/06 06:55:44;;;;;;;;;;;;;;;;;;5302354;26;20316;-71
2024/05/06 06:58:13;;;;;;;;;;;;;;;;;;5302138;26;19931;-72
2024/05/06 07:00:41;;;;;;;;;;;;;;;;;;5301915;26;19938;-72
2024/05/06 07:03:10;;;;;;;;;;;;;;;;;;5296702;27;20442;-69
2024/05/06 07:05:39;;;;;;;;;;;;;;;;;;5300619;26;20374;-69
2024/05/06 07:08:07;;;;;;;;;;;;;;;;;;5298022;27;19931;-71
2024/05/06 07:10:36;;;;;;;;;;;;;;;;;;5300531;27;19931;-70
2024/05/06 07:13:05;;;;;;;;;;;;;;;;;;5300266;27;19938;-70
2024/05/06 07:15:33;;;;;;;;;;;;;;;;;;5297588;27;20381;-70
2024/05/06 07:18:02;;;;;;;;;;;;;;;;;;5298056;26;19949;-70
2024/05/06 07:20:31;;;;;;;;;;;;;;;;;;5301655;27;19954;-70
2024/05/06 07:22:59;;;;;;;;;;;;;;;;;;5294961;27;20049;-71
2024/05/06 07:25:28;;;;;;;;;;;;;;;;;;5302667;26;20486;-71
2024/05/06 07:27:57;;;;;;;;;;;;;;;;;;5303016;26;19930;-71
2024/05/06 07:30:25;;;;;;;;;;;;;;;;;;5301681;27;20435;-70
2024/05/06 07:32:54;;;;;;;;;;;;;;;;;;5300723;27;19931;-70
2024/05/06 07:35:24;;;;;;;;;;;;;;;;;;5302562;27;19931;-70
2024/05/06 07:37:53;;;;;;;;;;;;;;;;;;5302513;26;19942;-71
2024/05/06 07:40:22;;;;;;;;;;;;;;;;;;5303985;27;19931;-70
2024/05/06 07:42:51;;;;;;;;;;;;;;;;;;5304122;27;19931;-70
2024/05/06 07:45:19;;;;;;;;;;;;;;;;;;5303706;27;19930;-70
2024/05/06 07:47:48;;;;;;;;;;;;;;;;;;5298154;26;20497;-71
2024/05/06 07:50:17;;;;;;;;;;;;;;;;;;5303645;27;19939;-71
2024/05/06 07:52:45;;;;;;;;;;;;;;;;;;5303499;26;19930;-71
2024/05/06 07:55:14;;;;;;;;;;;;;;;;;;5300542;26;20374;-71
2024/05/06 07:57:42;;;;;;;;;;;;;;;;;;5301984;27;19938;-71
2024/05/06 08:00:11;;;;;;;;;;;;;;;;;;5303703;27;19930;-70
2024/05/06 08:02:40;;;;;;;;;;;;;;;;;;5303415;26;19930;-71
2024/05/06 08:05:09;;;;;;;;;;;;;;;;;;5304959;27;20353;-72
2024/05/06 08:07:37;;;;;;;;;;;;;;;;;;5302390;26;20329;-71
2024/05/06 08:10:06;;;;;;;;;;;;;;;;;;5302541;27;20354;-71
2024/05/06 08:12:35;;;;;;;;;;;;;;;;;;5303852;27;19930;-71
2024/05/06 08:15:03;;;;;;;;;;;;;;;;;;5305982;26;20061;-70
2024/05/06 08:17:32;;;;;;;;;;;;;;;;;;5303913;26;19931;-70
2024/05/06 08:20:01;;;;;;;;;;;;;;;;;;5302320;26;19930;-70
2024/05/06 08:22:29;;;;;;;;;;;;;;;;;;5302331;26;19941;-70
2024/05/06 08:24:58;;;;;;;;;;;;;;;;;;5303746;26;20277;-71
2024/05/06 08:27:27;;;;;;;;;;;;;;;;;;5297640;26;19938;-70
2024/05/06 08:29:56;;;;;;;;;;;;;;;;;;5301536;27;20610;-70
2024/05/06 08:32:25;;;;;;;;;;;;;;;;;;5302699;26;20022;-71
2024/05/06 08:34:54;;;;;;;;;;;;;;;;;;5294193;27;19938;-69
2024/05/06 08:37:22;;;;;;;;;;;;;;;;;;5301001;27;19930;-69
2024/05/06 08:39:51;;;;;;;;;;;;;;;;;;5301611;27;20374;-70
2024/05/06 08:42:20;;;;;;;;;;;;;;;;;;5300710;26;20396;-70
2024/05/06 08:44:48;;;;;;;;;;;;;;;;;;5300446;27;19938;-67
2024/05/06 08:47:17;;;;;;;;;;;;;;;;;;5294217;26;20394;-70
2024/05/06 08:49:46;;;;;;;;;;;;;;;;;;5301223;27;20013;-70
2024/05/06 08:52:14;;;;;;;;;;;;;;;;;;5300780;27;20709;-69
2024/05/06 08:54:43;;;;;;;;;;;;;;;;;;5301359;27;19931;-70
2024/05/06 08:57:12;;;;;;;;;;;;;;;;;;5301087;26;19938;-69
2024/05/06 08:59:40;;;;;;;;;;;;;;;;;;5301689;27;20370;-70
2024/05/06 09:02:09;;;;;;;;;;;;;;;;;;5302268;27;19938;-71
2024/05/06 09:04:38;;;;;;;;;;;;;;;;;;5299592;26;19937;-68
2024/05/06 09:07:06;;;;;;;;;;;;;;;;;;5299471;26;20054;-68
2024/05/06 09:09:35;;;;;;;;;;;;;;;;;;5300167;27;19954;-69
2024/05/06 09:12:05;;;;;;;;;;;;;;;;;;5300561;27;19931;-69
2024/05/06 09:14:34;;;;;;;;;;;;;;;;;;5301851;27;19934;-69
2024/05/06 09:17:05;;;;;;;;;;;;;;;;;;5301235;27;20337;-69
2024/05/06 09:19:33;;;;;;;;;;;;;;;;;;5302079;27;19934;-69
2024/05/06 09:22:03;;;;;;;;;;;;;;;;;;5303681;26;19930;-69
2024/05/06 09:24:32;;;;;;;;;;;;;;;;;;5303246;27;19965;-69
2024/05/06 09:27:00;;;;;;;;;;;;;;;;;;5304160;26;20471;-69
2024/05/06 09:29:29;;;;;;;;;;;;;;;;;;5302828;27;19938;-70
2024/05/06 09:31:58;;;;;;;;;;;;;;;;;;5303885;26;19935;-69
2024/05/06 09:34:26;;;;;;;;;;;;;;;;;;5302635;27;19949;-69
2024/05/06 09:36:55;;;;;;;;;;;;;;;;;;5301912;27;20334;-70
2024/05/06 09:39:24;;;;;;;;;;;;;;;;;;5301889;26;19930;-70
2024/05/06 09:41:52;;;;;;;;;;;;;;;;;;5314362;26;19929;-69
2024/05/06 09:44:21;;;;;;;;;;;;;;;;;;5302557;26;19938;-70
2024/05/06 09:46:50;;;;;;;;;;;;;;;;;;5301595;26;19930;-70
2024/05/06 09:49:18;;;;;;;;;;;;;;;;;;5301761;27;19930;-70
2024/05/06 09:51:47;;;;;;;;;;;;;;;;;;5301590;27;20398;-70
2024/05/06 09:54:16;;;;;;;;;;;;;;;;;;5299100;27;19938;-70
2024/05/06 09:56:44;;;;;;;;;;;;;;;;;;5281517;27;19942;-70
2024/05/06 09:59:13;;;;;;;;;;;;;;;;;;5301565;27;20653;-68
2024/05/06 10:01:42;;;;;;;;;;;;;;;;;;5302074;26;19935;-70
2024/05/06 10:04:10;;;;;;;;;;;;;;;;;;5300250;27;19938;-70
2024/05/06 10:06:39;;;;;;;;;;;;;;;;;;5301715;26;19937;-69
2024/05/06 10:09:08;;;;;;;;;;;;;;;;;;5292504;27;20338;-71
2024/05/06 10:11:36;;;;;;;;;;;;;;;;;;5301020;26;19945;-70
2024/05/06 10:14:05;;;;;;;;;;;;;;;;;;5300847;26;19930;-70
2024/05/06 10:16:34;;;;;;;;;;;;;;;;;;5301752;26;19943;-69
2024/05/06 10:19:02;;;;;;;;;;;;;;;;;;5286347;27;19931;-69
2024/05/06 10:21:31;;;;;;;;;;;;;;;;;;5303207;26;20280;-69
2024/05/06 10:24:00;;;;;;;;;;;;;;;;;;5303605;27;19965;-69
2024/05/06 10:26:28;;;;;;;;;;;;;;;;;;5303980;26;19938;-69
2024/05/06 10:28:57;;;;;;;;;;;;;;;;;;5303755;26;19931;-69
2024/05/06 10:31:29;;;;;;;;;;;;;;;;;;5304702;27;19931;-70
2024/05/06 10:33:58;;;;;;;;;;;;;;;;;;5303987;27;20012;-70
2024/05/06 10:36:26;;;;;;;;;;;;;;;;;;5303556;26;19930;-70
2024/05/06 10:38:55;;;;;;;;;;;;;;;;;;5304744;27;19941;-70
2024/05/06 10:41:24;;;;;;;;;;;;;;;;;;5283841;27;19938;-69
2024/05/06 10:43:53;;;;;;;;;;;;;;;;;;5306108;26;19930;-71
2024/05/06 10:46:22;;;;;;;;;;;;;;;;;;5301399;27;19938;-70
2024/05/06 10:48:50;;;;;;;;;;;;;;;;;;5297676;27;19954;-70
2024/05/06 10:51:19;;;;;;;;;;;;;;;;;;5305845;26;19937;-70
2024/05/06 10:53:48;;;;;;;;;;;;;;;;;;5305314;27;19930;-71
2024/05/06 10:56:16;;;;;;;;;;;;;;;;;;5305346;26;19931;-70
2024/05/06 10:58:45;;;;;;;;;;;;;;;;;;5304412;27;19931;-73
2024/05/06 11:01:14;;;;;;;;;;;;;;;;;;5304140;27;19930;-74
2024/05/06 11:03:42;;;;;;;;;;;;;;;;;;5300377;27;20270;-73
2024/05/06 11:06:11;;;;;;;;;;;;;;;;;;5287993;26;19930;-73
2024/05/06 11:08:40;;;;;;;;;;;;;;;;;;5303821;26;19938;-74
2024/05/06 11:11:09;;;;;;;;;;;;;;;;;;5295397;27;20490;-72
2024/05/06 11:13:40;;;;;;;;;;;;;;;;;;5303921;26;19935;-73
2024/05/06 11:16:09;;;;;;;;;;;;;;;;;;5303335;26;20385;-68
2024/05/06 11:18:38;;;;;;;;;;;;;;;;;;5302947;27;19939;-71
2024/05/06 11:21:06;;;;;;;;;;;;;;;;;;5304510;26;20369;-71
2024/05/06 11:23:35;;;;;;;;;;;;;;;;;;5303878;27;19949;-72
2024/05/06 11:26:04;;;;;;;;;;;;;;;;;;5303841;27;20421;-72
2024/05/06 11:28:32;;;;;;;;;;;;;;;;;;5303129;27;19962;-72
2024/05/06 11:31:01;;;;;;;;;;;;;;;;;;5301470;26;19937;-72
2024/05/06 11:33:30;;;;;;;;;;;;;;;;;;5302555;27;19937;-72
2024/05/06 11:35:59;;;;;;;;;;;;;;;;;;5303447;27;19938;-73
2024/05/06 11:38:28;;;;;;;;;;;;;;;;;;5303741;27;19930;-72
2024/05/06 11:40:56;;;;;;;;;;;;;;;;;;5304938;27;19937;-76
2024/05/06 11:43:25;;;;;;;;;;;;;;;;;;5304202;26;19996;-73
2024/05/06 11:45:54;;;;;;;;;;;;;;;;;;5305615;27;19931;-71
2024/05/06 11:48:23;;;;;;;;;;;;;;;;;;5304884;27;20423;-71
2024/05/06 11:50:52;;;;;;;;;;;;;;;;;;5306569;26;19937;-73
2024/05/06 11:53:20;;;;;;;;;;;;;;;;;;5290941;27;19935;-72
2024/05/06 11:55:49;;;;;;;;;;;;;;;;;;5299943;27;19930;-73
2024/05/06 11:58:18;;;;;;;;;;;;;;;;;;5303701;27;19931;-74
2024/05/06 12:00:48;;;;;;;;;;;;;;;;;;5302381;26;20160;-73
2024/05/06 12:03:18;;;;;;;;;;;;;;;;;;5303935;26;19937;-75
2024/05/06 12:05:47;;;;;;;;;;;;;;;;;;5284824;27;19934;-74
2024/05/06 12:08:17;;;;;;;;;;;;;;;;;;5303736;27;19931;-72
2024/05/06 12:10:46;;;;;;;;;;;;;;;;;;5296541;27;19947;-74
2024/05/06 12:13:15;;;;;;;;;;;;;;;;;;5303086;27;19933;-73
2024/05/06 12:15:43;;;;;;;;;;;;;;;;;;5303216;26;19931;-73
2024/05/06 12:18:12;;;;;;;;;;;;;;;;;;5302801;27;20020;-73
2024/05/06 12:20:41;;;;;;;;;;;;;;;;;;5303618;27;19962;-74
2024/05/06 12:23:10;;;;;;;;;;;;;;;;;;5302495;27;20334;-71
2024/05/06 12:25:39;;;;;;;;;;;;;;;;;;5303877;27;19946;-74
2024/05/06 12:28:07;;;;;;;;;;;;;;;;;;5295737;26;20446;-73
2024/05/06 12:30:36;;;;;;;;;;;;;;;;;;5289967;27;19954;-75
2024/05/06 12:33:05;;;;;;;;;;;;;;;;;;5302693;27;19930;-74
2024/05/06 12:35:34;;;;;;;;;;;;;;;;;;5302783;27;19930;-75
2024/05/06 12:38:02;;;;;;;;;;;;;;;;;;5292148;27;20026;-74
2024/05/06 12:40:31;;;;;;;;;;;;;;;;;;5291811;26;20263;-74
2024/05/06 12:43:00;;;;;;;;;;;;;;;;;;5302836;27;19934;-74
2024/05/06 12:45:28;;;;;;;;;;;;;;;;;;5301762;27;19935;-73
2024/05/06 12:47:57;;;;;;;;;;;;;;;;;;5302753;27;19931;-74
2024/05/06 12:50:26;;;;;;;;;;;;;;;;;;5302394;26;19935;-73
2024/05/06 12:52:55;;;;;;;;;;;;;;;;;;5301600;26;19938;-71
2024/05/06 12:55:23;;;;;;;;;;;;;;;;;;5292944;27;19941;-71
2024/05/06 12:57:52;;;;;;;;;;;;;;;;;;5301940;27;20266;-70
2024/05/06 13:00:21;;;;;;;;;;;;;;;;;;5302471;27;20388;-70
2024/05/06 13:02:49;;;;;;;;;;;;;;;;;;5302860;27;19954;-70
2024/05/06 13:05:18;;;;;;;;;;;;;;;;;;5301923;26;20527;-70
2024/05/06 13:07:47;;;;;;;;;;;;;;;;;;5301686;26;20268;-70
2024/05/06 13:10:15;;;;;;;;;;;;;;;;;;5301892;27;19998;-70
2024/05/06 13:12:44;;;;;;;;;;;;;;;;;;5301051;27;20418;-70
2024/05/06 13:15:13;;;;;;;;;;;;;;;;;;5300717;27;19930;-70
2024/05/06 13:17:42;;;;;;;;;;;;;;;;;;5302354;26;20233;-73
2024/05/06 13:20:10;;;;;;;;;;;;;;;;;;5282670;27;20476;-71
2024/05/06 13:22:39;;;;;;;;;;;;;;;;;;5300792;26;20096;-71
2024/05/06 13:25:08;;;;;;;;;;;;;;;;;;5287551;27;19954;-72
2024/05/06 13:27:37;;;;;;;;;;;;;;;;;;5300427;27;20264;-72
2024/05/06 13:30:06;;;;;;;;;;;;;;;;;;5301395;27;20380;-73
2024/05/06 13:32:34;;;;;;;;;;;;;;;;;;5301295;27;20397;-74
2024/05/06 13:35:03;;;;;;;;;;;;;;;;;;5300090;26;19946;-72
2024/05/06 13:37:32;;;;;;;;;;;;;;;;;;5301663;26;19930;-73
2024/05/06 13:40:01;;;;;;;;;;;;;;;;;;5300511;26;19931;-71
2024/05/06 13:42:30;;;;;;;;;;;;;;;;;;5302056;26;20767;-72
2024/05/06 13:44:58;;;;;;;;;;;;;;;;;;5301515;27;19930;-75
2024/05/06 13:47:27;;;;;;;;;;;;;;;;;;5300999;26;19931;-72
2024/05/06 13:49:56;;;;;;;;;;;;;;;;;;5301352;26;19938;-72
2024/05/06 13:52:24;;;;;;;;;;;;;;;;;;5297064;27;20322;-67
2024/05/06 13:54:53;;;;;;;;;;;;;;;;;;5303462;27;20039;-67
2024/05/06 13:57:22;;;;;;;;;;;;;;;;;;5306906;26;19930;-67
2024/05/06 13:59:50;;;;;;;;;;;;;;;;;;5305593;27;20009;-71
2024/05/06 14:02:19;;;;;;;;;;;;;;;;;;5304052;27;19930;-71
2024/05/06 14:04:48;;;;;;;;;;;;;;;;;;5305070;26;19938;-71
2024/05/06 14:07:16;;;;;;;;;;;;;;;;;;5302974;27;20427;-67
2024/05/06 14:09:45;;;;;;;;;;;;;;;;;;5304267;27;19938;-71
2024/05/06 14:12:14;;;;;;;;;;;;;;;;;;5303954;26;19930;-71
2024/05/06 14:14:42;;;;;;;;;;;;;;;;;;5304252;26;19931;-73
2024/05/06 14:17:11;;;;;;;;;;;;;;;;;;5304963;27;20418;-72
2024/05/06 14:19:40;;;;;;;;;;;;;;;;;;5303821;26;19945;-72
2024/05/06 14:22:09;;;;;;;;;;;;;;;;;;5302548;26;19942;-73
2024/05/06 14:24:37;;;;;;;;;;;;;;;;;;5303802;27;19938;-71
2024/05/06 14:27:06;;;;;;;;;;;;;;;;;;5303384;26;20500;-72
2024/05/06 14:29:35;;;;;;;;;;;;;;;;;;5301313;27;19945;-70
2024/05/06 14:32:03;;;;;;;;;;;;;;;;;;5303348;26;19938;-70
2024/05/06 14:34:32;;;;;;;;;;;;;;;;;;5300196;27;19930;-70
2024/05/06 14:37:01;;;;;;;;;;;;;;;;;;5303915;26;19931;-70
2024/05/06 14:39:29;;;;;;;;;;;;;;;;;;5303754;26;19931;-71
2024/05/06 14:41:58;;;;;;;;;;;;;;;;;;5303335;27;19938;-70
2024/05/06 14:44:27;;;;;;;;;;;;;;;;;;5304177;26;19931;-71
2024/05/06 14:46:58;;;;;;;;;;;;;;;;;;5304545;26;20265;-71
2024/05/06 14:49:27;;;;;;;;;;;;;;;;;;5282577;27;20256;-69
2024/05/06 14:51:55;;;;;;;;;;;;;;;;;;5304313;27;19942;-70
2024/05/06 14:54:24;;;;;;;;;;;;;;;;;;5303814;27;19931;-71
2024/05/06 14:56:53;;;;;;;;;;;;;;;;;;5303750;26;19931;-71
2024/05/06 14:59:21;;;;;;;;;;;;;;;;;;5303560;27;20434;-71
2024/05/06 15:01:50;;;;;;;;;;;;;;;;;;5302953;26;19938;-73
2024/05/06 15:04:19;;;;;;;;;;;;;;;;;;5303603;26;19931;-72
2024/05/06 15:06:48;;;;;;;;;;;;;;;;;;5300608;27;20073;-72
2024/05/06 15:09:16;;;;;;;;;;;;;;;;;;5303726;27;19931;-71
2024/05/06 15:11:45;;;;;;;;;;;;;;;;;;5303564;27;19930;-70
2024/05/06 15:14:14;;;;;;;;;;;;;;;;;;5303418;26;19938;-71
2024/05/06 15:16:42;;;;;;;;;;;;;;;;;;5304071;27;19981;-70
2024/05/06 15:19:11;;;;;;;;;;;;;;;;;;5303003;26;19934;-70
2024/05/06 15:21:40;;;;;;;;;;;;;;;;;;5301165;27;20374;-71
2024/05/06 15:24:09;;;;;;;;;;;;;;;;;;5299867;27;19931;-70
2024/05/06 15:26:37;;;;;;;;;;;;;;;;;;5299891;27;20458;-70
2024/05/06 15:29:06;;;;;;;;;;;;;;;;;;5303123;27;19934;-70
2024/05/06 15:31:35;;;;;;;;;;;;;;;;;;5297812;27;19953;-71
2024/05/06 15:34:03;;;;;;;;;;;;;;;;;;5301180;27;19938;-71
2024/05/06 15:36:32;;;;;;;;;;;;;;;;;;5302533;26;19931;-69
2024/05/06 15:39:01;;;;;;;;;;;;;;;;;;5298670;26;20430;-71
2024/05/06 15:41:30;;;;;;;;;;;;;;;;;;5301984;27;19988;-72
2024/05/06 15:43:59;;;;;;;;;;;;;;;;;;5302838;27;19977;-71
2024/05/06 15:46:28;;;;;;;;;;;;;;;;;;5302810;27;20331;-72
2024/05/06 15:48:57;;;;;;;;;;;;;;;;;;5303474;27;19930;-72
2024/05/06 15:51:26;;;;;;;;;;;;;;;;;;5295101;27;19931;-70
2024/05/06 15:53:54;;;;;;;;;;;;;;;;;;5302864;26;19930;-70
2024/05/06 15:56:23;;;;;;;;;;;;;;;;;;5305202;27;19935;-73
2024/05/06 15:58:52;;;;;;;;;;;;;;;;;;5304690;27;19937;-72
2024/05/06 16:01:22;;;;;;;;;;;;;;;;;;5304058;27;19930;-71
2024/05/06 16:03:51;;;;;;;;;;;;;;;;;;5301283;27;19934;-72
2024/05/06 16:06:19;;;;;;;;;;;;;;;;;;5304285;27;19938;-71
2024/05/06 16:08:48;;;;;;;;;;;;;;;;;;5304304;26;19931;-71
2024/05/06 16:11:17;;;;;;;;;;;;;;;;;;5304870;27;19937;-71
2024/05/06 16:13:45;;;;;;;;;;;;;;;;;;5302790;27;19969;-70
2024/05/06 16:16:14;;;;;;;;;;;;;;;;;;5302074;26;19934;-72
2024/05/06 16:18:43;;;;;;;;;;;;;;;;;;5299927;26;20281;-70
2024/05/06 16:21:11;;;;;;;;;;;;;;;;;;5303145;27;19938;-72
2024/05/06 16:23:40;;;;;;;;;;;;;;;;;;5300010;27;19941;-72
2024/05/06 16:26:09;;;;;;;;;;;;;;;;;;5301029;27;19981;-73
2024/05/06 16:28:38;;;;;;;;;;;;;;;;;;5303042;26;20382;-73
2024/05/06 16:31:07;;;;;;;;;;;;;;;;;;5302854;27;19931;-73
2024/05/06 16:33:36;;;;;;;;;;;;;;;;;;5300487;26;19938;-72
2024/05/06 16:36:05;;;;;;;;;;;;;;;;;;5301136;26;19938;-71
2024/05/06 16:38:33;;;;;;;;;;;;;;;;;;5302339;27;19945;-73
2024/05/06 16:41:02;;;;;;;;;;;;;;;;;;5304168;27;19938;-73
2024/05/06 16:43:31;;;;;;;;;;;;;;;;;;5302899;26;20761;-71
2024/05/06 16:46:00;;;;;;;;;;;;;;;;;;5301763;27;19938;-67
2024/05/06 16:48:29;;;;;;;;;;;;;;;;;;5300803;26;19942;-66
2024/05/06 16:50:58;;;;;;;;;;;;;;;;;;5303628;27;19946;-66
2024/05/06 16:53:26;;;;;;;;;;;;;;;;;;5299171;27;19942;-66
2024/05/06 16:55:55;;;;;;;;;;;;;;;;;;5285924;27;19938;-69
2024/05/06 16:58:24;;;;;;;;;;;;;;;;;;5302523;27;19930;-67
2024/05/06 17:00:53;;;;;;;;;;;;;;;;;;5316695;26;20467;-67